• Join FlightAware (Why Join?)
  • Login
  • US Flag 
10:59PM EDT


 

Airport Tracker/Info


-or-


 

Live Flight TrackerFlight Track Log ✈ DAL3865 ✈ 31-Jul-2013 ✈ KORF - KDTW

Flight Track Log - Related Links

Times and Time Zones

All times are in EDT time to prevent confusion due to time zone crossing. See the DAL3865 flight status page for this flight to view local times or setup timezone preferences in your user account.

Time Position Orientation Groundspeed Altitude Reporting Facility
EDT Latitude Longitude Course Direction KTS MPH feet Rate Location/Type
07:19AM 36.9078 -76.1894 280° West 153 176 500  Level Washington Center
07:20AM 36.9517 -76.1611 27° Northeast 209 241 2,000 1,620 Climbing Washington Center
07:21AM 36.9742 -76.2261 293° West 238 274 3,800 2,040 Climbing Washington Center
07:22AM 36.9800 -76.3172 275° West 271 312 6,100 2,460 Climbing Washington Center
07:23AM 36.9878 -76.4083 276° West 271 312 8,800 2,400 Climbing Washington Center
07:24AM 37.0008 -76.8048 282° West  Level FlightAware Approximate
07:24AM 36.9958 -76.4606 281° West 274 315 9,900  Level Washington Center
07:25AM 37.0208 -76.9286 280° West  Level FlightAware Approximate
07:25AM 37.0053 -76.5750 276° West 323 372 11,200  Level Washington Center
07:26AM 37.0169 -76.6922 277° West 340 391 12,800 1,560 Climbing Washington Center
07:27AM 37.0319 -76.8511 277° West 342 394 15,000 1,380 Climbing Washington Center
07:28AM 37.0431 -76.9736 277° West 348 400 16,200 1,140 Climbing Washington Center
07:29AM 37.0542 -77.1014 276° West 360 414 17,400 960 Climbing Washington Center
07:30AM 37.0775 -77.2294 283° West 371 427 18,200 840 Climbing Washington Center
07:31AM 37.1006 -77.3575 283° West 376 433 19,100 840 Climbing Washington Center
07:32AM 37.1239 -77.4856 283° West 376 433 19,900 720 Climbing Washington Center
07:33AM 37.1467 -77.6164 282° West 376 433 20,600 600 Climbing Washington Center
07:34AM 37.1714 -77.7525 283° West 383 441 21,200 540 Climbing Washington Center
07:35AM 37.2211 -77.8792 296° West 390 449 21,800 600 Climbing Washington Center
07:36AM 37.2878 -77.9961 306° West 400 460 22,400 600 Climbing Washington Center
07:37AM 37.3542 -78.1131 306° West 408 470 23,000 600 Climbing Washington Center
07:38AM 37.4206 -78.2303 306° West 413 475 23,600 540 Climbing Washington Center
07:39AM 37.4867 -78.3453 306° West 413 475 24,200 540 Climbing Washington Center
07:40AM 37.5450 -78.4469 306° West 408 470 24,800 480 Climbing Washington Center
07:41AM 37.6089 -78.5647 304° West 408 470 25,200 1,560 Climbing Washington Center
07:42AM 37.6706 -78.6825 304° West 408 470 28,000 540 Climbing Washington Center
07:43AM 37.7422 -78.8089 306° West 408 470 26,300 -660 Descending Washington Center
07:44AM 37.8078 -78.9272 305° West 408 470 26,800 480 Climbing Washington Center
07:45AM 37.8711 -79.0458 304° West 408 470 27,300 480 Climbing Washington Center
07:46AM 37.9136 -79.1608 295° West 403 464 27,800 300 Climbing Washington Center
07:47AM 37.9386 -79.2992 283° West 397 457 28,000 60 Climbing Washington Center
07:48AM 37.9656 -79.4400 284° West 403 464 28,000  Level Washington Center
07:49AM 37.9939 -79.5969 283° West 415 478 28,000  Level Washington Center
07:50AM 38.0158 -79.7431 281° West 420 483 28,000  Level Washington Center
07:51AM 38.0419 -79.8897 283° West 420 483 28,000  Level Washington Center
07:54AM 38.0936 -80.1964 282° West 426 490 28,000  Level Indianapolis Center
07:55AM 38.1178 -80.3439 282° West 426 490 28,000  Level Indianapolis Center
07:56AM 38.1442 -80.4900 283° West 425 489 28,000  Level Indianapolis Center
07:57AM 38.1681 -80.6369 282° West 424 488 28,000  Level Indianapolis Center
07:58AM 38.2578 -80.7719 310° West 434 499 28,000  Level Indianapolis Center
07:59AM 38.3589 -80.8550 327° Northwest 436 502 28,000  Level Indianapolis Center
08:00AM 38.4589 -80.9394 327° Northwest 431 496 28,000  Level Indianapolis Center
08:01AM 38.5606 -81.0244 327° Northwest 436 502 28,000  Level Indianapolis Center
08:02AM 38.6611 -81.1086 327° Northwest 435 501 28,000  Level Indianapolis Center
08:03AM 38.7617 -81.1933 327° Northwest 436 502 28,000  Level Indianapolis Center
08:04AM 38.8817 -81.2944 327° Northwest 436 502 28,000  Level Indianapolis Center
08:05AM 38.9806 -81.3792 326° Northwest 435 501 28,000  Level Indianapolis Center
08:06AM 39.0800 -81.4647 326° Northwest 434 499 28,000  Level Indianapolis Center
08:07AM 39.1800 -81.5500 327° Northwest 434 499 28,000  Level Indianapolis Center
08:08AM 39.2814 -81.6378 326° Northwest 438 504 28,000  Level Indianapolis Center
08:09AM 39.3819 -81.7233 327° Northwest 436 502 28,000  Level Indianapolis Center
08:10AM 39.4997 -81.7756 341° North 444 511 28,000  Level Indianapolis Center
08:11AM 39.6408 -81.8375 341° North 449 517 28,000  Level Indianapolis Center
08:12AM 39.7611 -81.8744 347° North 445 512 28,000  Level Indianapolis Center
08:13AM 39.8858 -81.8956 353° North 448 516 28,000  Level Indianapolis Center
08:14AM 40.0000 -81.9144 353° North 444 511 28,000  Level Indianapolis Center
08:15AM 40.1453 -81.9400 352° North 445 512 28,000  Level Indianapolis Center
08:16AM 40.2694 -81.9614 353° North 446 513 28,000  Level Indianapolis Center
08:17AM 40.3922 -81.9839 352° North 442 509 28,000  Level Indianapolis Center
08:18AM 40.5150 -82.0064 352° North 441 507 28,000  Level Indianapolis Center
08:19AM 40.6303 -82.0544 342° North 433 498 28,000  Level Indianapolis Center
08:20AM 40.7372 -82.1314 331° Northwest 430 495 28,000 -60 Level Indianapolis Center
08:21AM 40.8444 -82.2122 330° Northwest 435 501 27,900 -600 Descending Indianapolis Center
08:22AM 40.9508 -82.2931 330° Northwest 434 499 26,800 -1,020 Descending Indianapolis Center
08:23AM 41.0558 -82.3786 328° Northwest 435 501 26,000 -660 Descending Cleveland Center
08:24AM 41.1586 -82.4558 331° Northwest 430 495 25,600 -960 Descending Cleveland Center
08:25AM 41.2575 -82.5358 329° Northwest 423 487 24,100 -1,740 Descending Cleveland Center
08:26AM 41.3433 -82.6297 321° Northwest 410 472 22,200 -1,680 Descending Cleveland Center
08:27AM 41.4167 -82.7181 318° Northwest 405 466 20,800 -1,740 Descending Cleveland Center
08:28AM 41.4964 -82.8094 319° Northwest 392 451 18,800 -2,280 Descending Cleveland Center
08:29AM 41.5494 -82.8667 321° Northwest 367 422 17,300 -2,580 Descending Cleveland Center
08:30AM 41.6186 -82.9497 318° Northwest 362 417 15,000 -2,520 Descending Cleveland Center
08:30AM 41.6553 -82.9956 317° Northwest 365 420 13,700 -2,460 Descending Cleveland Center
08:31AM 41.6958 -83.0414 320° Northwest 353 406 12,500 -1,620 Descending Cleveland Center
08:31AM 41.7306 -83.0761 323° Northwest 353 406 12,100 -540 Descending Cleveland Center
08:32AM 41.7736 -83.1058 333° Northwest 315 362 12,000  Descending Cleveland Center
08:33AM 41.8475 -83.1644 329° Northwest 297 342 12,100  Climbing Cleveland Center
08:34AM 41.9133 -83.2061 335° Northwest 275 316 12,000 -120 Descending Cleveland Center
08:34AM 41.9483 -83.2244 339° North 287 330 12,000  Level Cleveland Center
08:35AM 41.9856 -83.2397 343° North 245 282 12,000  Level Cleveland Center
08:36AM 42.0514 -83.2678 342° North 247 284 12,000 -600 Level Cleveland Center
08:37AM 42.1222 -83.2708 358° North 251 289 10,800 -1,380 Descending Cleveland Center
08:38AM 42.1875 -83.2456 16° North 254 292 9,400 -1,440 Descending Cleveland Center
08:39AM 42.2492 -83.1975 30° Northeast 249 287 7,900 -1,260 Descending Cleveland Center
08:40AM 42.3003 -83.1464 36° Northeast 239 275 6,900 -1,440 Descending Cleveland Center
08:41AM 42.3636 -83.1094 23° Northeast 245 282 5,100 -1,320 Descending Cleveland Center
08:42AM 42.3769 -83.1719 286° West 187 215 4,300 -840 Descending Cleveland Center
08:43AM 42.3464 -83.2297 234° Southwest 181 208 3,400 -840 Descending Cleveland Center
08:44AM 42.3078 -83.2703 218° Southwest 178 205 2,700 -780 Descending Cleveland Center
08:45AM 42.2739 -83.2967 210° Southwest 128 147 1,900 -780 Descending Cleveland Center
08:46AM 42.2400 -83.3233 210° Southwest 132 152 1,200 -720 Descending Cleveland Center